Time;durP1;ratioP1;P1;durP2;ratioP2;P2;SDS_P1;SDS_P2;PMS_P1;PMS_P2;Temp;Humidity;BMP_temperature;BMP_pressure;BME280_temperature;BME280_humidity;BME280_pressure;Samples;Min_cycle;Max_cycle;Signal;HPM_P1;HPM_P2
2022/06/17 00:01:44;;;;;;;5.40;3.13;;;12.60;99.90;;;;;;5061972;28;20710;-64
2022/06/17 00:04:10;;;;;;;6.28;3.67;;;12.50;99.90;;;;;;5067227;28;20048;-69
2022/06/17 00:06:46;;;;;;;6.55;3.20;;;12.40;99.90;;;;;;5068067;28;20054;-64
2022/06/17 00:09:13;;;;;;;4.07;3.38;;;12.40;99.90;;;;;;5068914;28;20114;-69
2022/06/17 00:11:39;;;;;;;8.32;3.67;;;12.30;99.90;;;;;;5064940;28;20418;-65
2022/06/17 00:14:22;;;;;;;5.13;3.42;;;12.30;99.90;;;;;;5068489;28;20044;-66
2022/06/17 00:16:48;;;;;;;8.95;3.22;;;12.30;99.90;;;;;;5073350;28;20536;-62
2022/06/17 00:19:17;;;;;;;4.43;3.35;;;12.30;99.90;;;;;;5067460;28;20506;-67
2022/06/17 00:21:46;;;;;;;7.13;3.33;;;12.30;99.90;;;;;;5086260;28;20503;-64
2022/06/17 00:24:16;;;;;;;4.70;4.25;;;12.20;99.90;;;;;;5085091;28;20044;-66
2022/06/17 00:26:42;;;;;;;7.28;4.68;;;12.30;99.90;;;;;;5068654;28;20389;-67
2022/06/17 00:29:11;;;;;;;4.85;4.25;;;12.30;99.90;;;;;;5046804;28;20048;-67
2022/06/17 00:31:37;;;;;;;8.45;4.32;;;12.30;99.90;;;;;;5064756;28;20553;-61
2022/06/17 00:34:03;;;;;;;7.32;4.65;;;12.40;99.90;;;;;;5064110;28;20051;-64
2022/06/17 00:36:29;;;;;;;8.70;4.55;;;12.40;99.90;;;;;;5081005;28;20056;-63
2022/06/17 00:38:54;;;;;;;5.90;4.32;;;12.40;99.90;;;;;;5067610;28;20044;-73
2022/06/17 00:41:32;;;;;;;5.53;4.78;;;12.40;99.90;;;;;;5065262;28;20047;-67
2022/06/17 00:44:01;;;;;;;6.25;5.30;;;12.40;99.90;;;;;;5068904;28;20051;-71
2022/06/17 00:46:34;;;;;;;9.90;5.88;;;12.40;99.90;;;;;;5065866;28;20063;-67
2022/06/17 00:49:10;;;;;;;5.65;4.75;;;12.40;99.90;;;;;;5053126;28;20048;-62
2022/06/17 00:51:44;;;;;;;6.78;4.45;;;12.30;99.90;;;;;;5065134;28;20091;-65
2022/06/17 00:54:31;;;;;;;8.32;5.88;;;12.30;99.90;;;;;;5053380;28;20044;-73
2022/06/17 00:56:57;;;;;;;6.70;5.20;;;12.30;99.90;;;;;;5051188;28;20055;-67
2022/06/17 00:59:25;;;;;;;6.03;4.97;;;12.30;99.90;;;;;;5065500;28;20044;-63
2022/06/17 01:02:07;;;;;;;7.70;6.45;;;12.30;99.90;;;;;;5066048;28;20048;-67
2022/06/17 01:04:38;;;;;;;6.85;5.78;;;12.30;99.90;;;;;;5063029;28;20119;-63
2022/06/17 01:07:25;;;;;;;11.10;6.72;;;12.30;99.90;;;;;;5064816;28;20048;-66
2022/06/17 01:10:01;;;;;;;6.65;5.68;;;12.30;99.90;;;;;;5051281;28;20398;-66
2022/06/17 01:12:33;;;;;;;8.40;6.25;;;12.20;99.90;;;;;;5061938;28;20503;-66
2022/06/17 01:15:00;;;;;;;8.65;6.32;;;12.20;99.90;;;;;;5066534;28;20384;-68
2022/06/17 01:17:26;;;;;;;14.25;6.55;;;12.20;99.90;;;;;;5061646;28;20091;-71
2022/06/17 01:19:54;;;;;;;6.38;5.70;;;12.20;99.90;;;;;;5063038;28;20510;-69
2022/06/17 01:22:26;;;;;;;7.68;5.32;;;12.20;99.90;;;;;;5063266;28;20048;-62
2022/06/17 01:25:01;;;;;;;9.30;6.55;;;12.20;99.90;;;;;;5064383;28;20109;-67
2022/06/17 01:27:37;;;;;;;10.13;7.00;;;12.20;99.90;;;;;;5047085;28;20336;-68
2022/06/17 01:30:07;;;;;;;14.30;7.10;;;12.10;99.90;;;;;;5061307;28;20060;-69
2022/06/17 01:32:39;;;;;;;8.13;6.38;;;12.10;99.90;;;;;;5035590;28;20036;-62
2022/06/17 01:35:06;;;;;;;11.02;7.05;;;12.20;99.90;;;;;;5033680;28;20052;-64
2022/06/17 01:37:32;;;;;;;12.77;7.57;;;12.10;99.90;;;;;;5064061;28;20050;-69
2022/06/17 01:39:59;;;;;;;9.10;6.63;;;12.10;99.90;;;;;;5046223;28;20049;-63
2022/06/17 01:42:26;;;;;;;8.65;6.60;;;12.10;99.90;;;;;;5045927;28;20040;-65
2022/06/17 01:44:54;;;;;;;9.55;6.78;;;12.10;99.90;;;;;;5063884;28;20392;-66
2022/06/17 01:47:25;;;;;;;11.38;5.88;;;12.00;99.90;;;;;;5045649;28;20044;-63
2022/06/17 01:49:56;;;;;;;12.88;7.35;;;11.90;99.90;;;;;;5061415;28;20483;-65
2022/06/17 01:52:31;;;;;;;7.68;6.43;;;11.90;99.90;;;;;;5053272;28;20072;-69
2022/06/17 01:54:58;;;;;;;11.15;7.00;;;11.90;99.90;;;;;;5063358;28;20052;-62
2022/06/17 01:57:31;;;;;;;8.27;7.35;;;11.90;99.90;;;;;;5063403;28;20111;-63
2022/06/17 02:00:02;;;;;;;19.38;7.65;;;11.90;99.90;;;;;;5061147;28;20040;-67
2022/06/17 02:02:30;;;;;;;15.32;6.97;;;11.90;99.90;;;;;;5062757;28;20090;-65
2022/06/17 02:05:00;;;;;;;9.35;7.00;;;12.00;99.90;;;;;;5062401;28;20048;-70
2022/06/17 02:07:52;;;;;;;10.32;6.88;;;12.00;99.90;;;;;;5040380;28;20048;-65
2022/06/17 02:10:24;;;;;;;12.90;6.72;;;11.90;99.90;;;;;;5048387;28;20151;-66
2022/06/17 02:12:50;;;;;;;14.88;7.00;;;11.90;99.90;;;;;;5044070;28;20060;-66
2022/06/17 02:15:17;;;;;;;9.55;6.72;;;12.00;99.90;;;;;;5063835;28;20075;-66
2022/06/17 02:17:45;;;;;;;7.38;6.25;;;12.00;99.90;;;;;;5061640;28;20044;-62
2022/06/17 02:20:14;;;;;;;12.48;6.88;;;12.00;99.90;;;;;;5064793;28;20049;-69
2022/06/17 02:22:40;;;;;;;8.70;6.65;;;12.00;99.90;;;;;;5062779;28;20041;-62
2022/06/17 02:25:17;;;;;;;11.18;6.32;;;12.00;99.90;;;;;;5062692;28;20135;-69
2022/06/17 02:27:44;;;;;;;9.52;6.30;;;12.00;99.90;;;;;;5066299;28;20510;-61
2022/06/17 02:30:11;;;;;;;12.30;6.00;;;12.00;99.90;;;;;;5046224;28;20053;-71
2022/06/17 02:32:39;;;;;;;8.32;5.82;;;12.00;99.90;;;;;;5053027;28;20087;-73
2022/06/17 02:35:29;;;;;;;8.38;4.72;;;12.00;99.90;;;;;;5062856;28;20086;-62
2022/06/17 02:37:55;;;;;;;8.13;5.78;;;12.00;99.90;;;;;;5063775;28;20036;-65
2022/06/17 02:40:37;;;;;;;8.45;5.38;;;12.00;99.90;;;;;;5045956;28;20049;-66
2022/06/17 02:43:08;;;;;;;9.77;5.90;;;12.00;99.90;;;;;;5062723;28;20503;-62
2022/06/17 02:45:40;;;;;;;13.50;6.00;;;12.00;99.90;;;;;;5064493;28;20056;-68
2022/06/17 02:48:31;;;;;;;6.38;5.43;;;12.00;99.90;;;;;;5066399;28;20040;-71
2022/06/17 02:51:00;;;;;;;6.85;5.18;;;12.00;99.90;;;;;;5060670;28;20053;-68
2022/06/17 02:53:34;;;;;;;8.45;5.63;;;12.00;99.90;;;;;;5064064;28;20045;-70
2022/06/17 02:56:03;;;;;;;8.15;6.13;;;12.00;99.90;;;;;;5064921;28;20060;-64
2022/06/17 02:58:44;;;;;;;6.70;5.57;;;12.00;99.90;;;;;;5067212;28;20048;-67
2022/06/17 03:01:19;;;;;;;7.47;5.75;;;12.00;99.90;;;;;;5063897;28;20067;-67
2022/06/17 03:03:47;;;;;;;8.73;5.40;;;12.00;99.90;;;;;;5065681;28;20143;-70
2022/06/17 03:06:41;;;;;;;6.65;4.80;;;12.10;99.90;;;;;;5067761;28;20052;-61
2022/06/17 03:09:28;;;;;;;6.50;5.55;;;12.10;99.90;;;;;;5028160;28;20053;-66
2022/06/17 03:11:58;;;;;;;10.68;5.88;;;12.00;99.90;;;;;;5066769;28;20056;-63
2022/06/17 03:14:28;;;;;;;7.13;5.60;;;12.10;99.90;;;;;;5086207;28;20059;-65
2022/06/17 03:16:57;;;;;;;9.70;5.68;;;12.10;99.90;;;;;;5052423;28;20059;-71
2022/06/17 03:19:26;;;;;;;;;;;12.10;99.90;;;;;;5052796;28;20134;-69
2022/06/17 03:21:53;;;;;;;5.38;4.90;;;12.10;99.90;;;;;;5065768;28;19924;-65
2022/06/17 03:24:27;;;;;;;9.90;5.47;;;12.10;99.90;;;;;;5046433;28;20052;-67
2022/06/17 03:27:07;;;;;;;7.60;5.70;;;12.10;99.90;;;;;;5067942;28;20094;-62
2022/06/17 03:29:35;;;;;;;7.53;5.45;;;12.10;99.90;;;;;;5069317;28;20043;-64
2022/06/17 03:32:05;;;;;;;7.80;5.50;;;12.10;99.90;;;;;;5039378;28;20045;-63
2022/06/17 03:34:36;;;;;;;8.93;5.75;;;12.20;99.90;;;;;;5063139;28;20055;-71
2022/06/17 03:37:06;;;;;;;10.25;6.35;;;12.20;99.90;;;;;;5069423;28;20581;-69
2022/06/17 03:39:41;;;;;;;8.45;5.40;;;12.20;99.90;;;;;;5067440;28;20204;-67
2022/06/17 03:42:12;;;;;;;6.57;5.80;;;12.20;99.90;;;;;;5060378;28;20145;-63
2022/06/17 03:44:59;;;;;;;7.95;5.97;;;12.30;99.90;;;;;;5067885;28;20469;-67
2022/06/17 03:47:49;;;;;;;10.20;5.82;;;12.30;99.90;;;;;;5067371;28;20039;-67
2022/06/17 03:50:25;;;;;;;10.50;5.95;;;12.40;99.90;;;;;;5068585;28;20051;-68
2022/06/17 03:53:03;;;;;;;13.23;6.47;;;12.40;99.90;;;;;;5059772;28;20501;-69
2022/06/17 03:55:29;;;;;;;10.50;7.10;;;12.50;99.90;;;;;;5068123;28;20371;-65
2022/06/17 03:57:58;;;;;;;10.20;6.47;;;12.60;99.90;;;;;;5051220;28;20044;-63
2022/06/17 04:00:41;;;;;;;10.45;6.55;;;12.70;99.90;;;;;;5051016;28;20469;-65
2022/06/17 04:03:13;;;;;;;10.05;6.63;;;12.80;99.90;;;;;;5067319;28;20051;-65
2022/06/17 04:05:42;;;;;;;18.45;6.78;;;12.90;99.90;;;;;;5065064;28;20433;-69
2022/06/17 04:08:10;;;;;;;11.80;6.93;;;13.00;99.90;;;;;;5068290;28;20494;-63
2022/06/17 04:10:36;;;;;;;7.47;6.57;;;13.10;99.90;;;;;;5067864;28;20145;-61
2022/06/17 04:13:02;;;;;;;9.57;6.60;;;13.20;99.90;;;;;;5062881;28;20514;-72
2022/06/17 04:15:47;;;;;;;8.80;6.10;;;13.30;99.90;;;;;;5065047;28;20048;-62
2022/06/17 04:18:13;;;;;;;10.98;7.13;;;13.30;99.90;;;;;;5064126;28;20052;-62
2022/06/17 04:20:54;;;;;;;8.05;5.93;;;13.40;99.90;;;;;;5064422;28;20048;-65
2022/06/17 04:23:31;;;;;;;8.80;6.07;;;13.50;99.90;;;;;;5058718;28;20045;-66
2022/06/17 04:26:02;;;;;;;14.18;6.38;;;13.70;99.90;;;;;;5066311;28;20053;-72
2022/06/17 04:28:44;;;;;;;7.53;5.82;;;13.80;99.90;;;;;;5065978;28;20051;-63
2022/06/17 04:31:18;;;;;;;10.32;6.28;;;13.90;99.90;;;;;;5063720;28;20052;-68
2022/06/17 04:34:01;;;;;;;11.98;6.88;;;14.00;99.90;;;;;;5063489;28;20040;-64
2022/06/17 04:36:39;;;;;;;22.15;7.28;;;14.10;99.90;;;;;;5063036;28;20040;-63
2022/06/17 04:39:05;;;;;;;17.08;7.30;;;14.30;99.90;;;;;;5048836;28;20103;-65
2022/06/17 04:41:34;;;;;;;8.93;6.78;;;14.40;99.90;;;;;;5064499;28;20569;-63
2022/06/17 04:44:04;;;;;;;15.50;8.07;;;14.60;99.90;;;;;;5045719;28;20045;-68
2022/06/17 04:46:42;;;;;;;13.27;7.97;;;14.70;99.90;;;;;;5064645;28;20045;-66
2022/06/17 04:49:23;;;;;;;11.15;7.90;;;14.80;99.90;;;;;;5063177;28;20905;-64
2022/06/17 04:51:53;;;;;;;14.77;7.00;;;14.90;99.90;;;;;;5064837;28;20165;-63
2022/06/17 04:54:19;;;;;;;19.17;7.72;;;14.90;99.90;;;;;;5055170;28;20049;-62
2022/06/17 04:56:49;;;;;;;19.90;8.23;;;15.00;99.90;;;;;;5059352;28;20048;-69
2022/06/17 04:59:37;;;;;;;16.80;8.32;;;15.00;99.90;;;;;;5056096;28;20052;-70
2022/06/17 05:02:06;;;;;;;14.48;7.38;;;15.10;99.90;;;;;;5058704;28;20623;-66
2022/06/17 05:04:33;;;;;;;12.75;6.60;;;15.10;99.90;;;;;;5047929;28;20075;-68
2022/06/17 05:06:58;;;;;;;16.65;6.70;;;15.20;99.90;;;;;;5047313;28;20485;-63
2022/06/17 05:09:34;;;;;;;12.60;6.93;;;15.30;99.90;;;;;;5063451;28;20029;-65
2022/06/17 05:12:20;;;;;;;12.60;6.10;;;15.30;99.90;;;;;;5055474;28;20095;-68
2022/06/17 05:14:57;;;;;;;8.68;6.00;;;15.40;99.90;;;;;;5035932;28;20052;-66
2022/06/17 05:17:23;;;;;;;6.57;5.78;;;15.40;99.90;;;;;;5067833;28;20043;-73
2022/06/17 05:19:49;;;;;;;7.97;5.90;;;15.40;99.90;;;;;;5067872;28;20048;-60
2022/06/17 05:22:25;;;;;;;10.32;6.72;;;15.40;99.90;;;;;;5050267;28;20090;-66
2022/06/17 05:24:52;;;;;;;13.40;5.45;;;15.40;99.90;;;;;;5069074;28;20458;-65
2022/06/17 05:27:17;;;;;;;8.65;5.45;;;15.50;99.90;;;;;;5080357;28;20073;-70
2022/06/17 05:29:43;;;;;;;17.48;7.22;;;15.50;99.90;;;;;;5064624;28;20439;-65
2022/06/17 05:32:16;;;;;;;9.57;5.57;;;15.50;99.90;;;;;;5060841;28;20429;-68
2022/06/17 05:34:42;;;;;;;8.98;5.85;;;15.50;99.90;;;;;;5065555;28;20904;-65
2022/06/17 05:37:08;;;;;;;10.75;5.32;;;15.50;99.90;;;;;;5067453;28;20059;-67
2022/06/17 05:39:36;;;;;;;8.55;4.68;;;15.50;99.90;;;;;;5066492;28;20129;-66
2022/06/17 05:42:02;;;;;;;10.38;4.80;;;15.50;99.90;;;;;;5083517;28;20161;-64
2022/06/17 05:44:29;;;;;;;6.18;4.65;;;15.60;99.90;;;;;;5080223;28;20036;-60
2022/06/17 05:46:55;;;;;;;10.15;5.35;;;15.60;99.90;;;;;;5030760;28;20080;-69
2022/06/17 05:49:20;;;;;;;4.40;4.00;;;15.60;99.90;;;;;;5055599;28;20071;-63
2022/06/17 05:51:46;;;;;;;6.43;4.45;;;15.60;99.90;;;;;;5047236;28;20348;-70
2022/06/17 05:54:12;;;;;;;9.93;3.95;;;15.70;99.90;;;;;;5063748;28;20040;-62
2022/06/17 05:56:37;;;;;;;10.65;4.18;;;15.70;99.90;;;;;;5062695;28;20032;-67
2022/06/17 05:59:03;;;;;;;6.10;4.18;;;15.80;99.90;;;;;;5064888;28;20498;-65
2022/06/17 06:01:29;;;;;;;4.10;3.70;;;15.90;99.90;;;;;;5047852;28;20123;-68
2022/06/17 06:03:55;;;;;;;6.20;3.63;;;15.90;99.90;;;;;;5068325;28;20044;-64
2022/06/17 06:06:20;;;;;;;11.48;4.28;;;16.00;99.90;;;;;;5063856;28;20040;-65
2022/06/17 06:08:46;;;;;;;7.28;3.95;;;16.00;99.90;;;;;;5048141;28;20105;-65
2022/06/17 06:11:12;;;;;;;13.60;4.50;;;16.10;99.90;;;;;;5081201;28;20040;-68
2022/06/17 06:13:38;;;;;;;7.28;3.95;;;16.10;99.90;;;;;;5065314;28;20055;-71
2022/06/17 06:16:04;;;;;;;9.50;4.13;;;16.20;99.90;;;;;;5064408;28;20083;-62
2022/06/17 06:18:33;;;;;;;7.28;3.90;;;16.20;99.90;;;;;;5064990;28;20146;-69
2022/06/17 06:21:04;;;;;;;10.30;4.32;;;16.30;99.90;;;;;;5066973;28;20047;-64
2022/06/17 06:23:34;;;;;;;4.72;3.70;;;16.30;99.90;;;;;;5083376;28;20044;-71
2022/06/17 06:26:00;;;;;;;7.43;3.67;;;16.30;99.90;;;;;;5071037;28;20449;-61
2022/06/17 06:28:27;;;;;;;6.15;3.78;;;16.40;99.90;;;;;;5088313;28;20048;-69
2022/06/17 06:30:57;;;;;;;10.30;4.72;;;16.50;99.90;;;;;;5069944;28;20669;-67
2022/06/17 06:33:23;;;;;;;8.07;4.50;;;16.60;99.90;;;;;;5067960;28;20101;-61
2022/06/17 06:35:49;;;;;;;6.20;4.55;;;16.60;99.90;;;;;;5085868;28;20044;-65
2022/06/17 06:38:14;;;;;;;7.80;4.55;;;16.70;99.90;;;;;;5066774;28;20067;-62
2022/06/17 06:40:41;;;;;;;9.65;4.45;;;16.70;99.90;;;;;;5085554;28;20101;-63
2022/06/17 06:43:13;;;;;;;7.25;4.85;;;16.70;99.90;;;;;;5087153;28;20533;-61
2022/06/17 06:45:39;;;;;;;7.15;4.38;;;16.70;99.90;;;;;;5066601;28;20101;-67
2022/06/17 06:48:07;;;;;;;7.72;4.28;;;16.80;99.90;;;;;;5058920;28;20479;-68
2022/06/17 06:50:35;;;;;;;10.93;5.55;;;16.80;99.90;;;;;;5062995;28;20275;-61
2022/06/17 06:53:00;;;;;;;9.13;3.92;;;16.90;99.90;;;;;;5064713;28;20135;-65
2022/06/17 06:55:27;;;;;;;7.93;4.22;;;16.90;99.90;;;;;;5087158;28;20123;-65
2022/06/17 06:57:58;;;;;;;7.18;4.38;;;16.90;99.90;;;;;;5043217;28;20110;-63
2022/06/17 07:00:31;;;;;;;6.43;5.03;;;17.00;99.90;;;;;;5070475;28;20044;-67
2022/06/17 07:02:56;;;;;;;7.70;4.10;;;17.00;99.90;;;;;;5066068;28;20507;-65
2022/06/17 07:05:22;;;;;;;9.35;4.20;;;17.00;99.90;;;;;;5062057;28;20085;-72
2022/06/17 07:07:48;;;;;;;8.52;4.63;;;17.10;99.90;;;;;;5043385;28;20044;-61
2022/06/17 07:10:19;;;;;;;7.93;4.13;;;17.10;99.90;;;;;;5065637;28;20153;-70
2022/06/17 07:12:45;;;;;;;8.48;4.28;;;17.20;99.90;;;;;;5044076;28;20048;-61
2022/06/17 07:15:15;;;;;;;4.65;4.00;;;17.30;99.90;;;;;;5064902;28;20528;-64
2022/06/17 07:17:53;;;;;;;4.43;4.00;;;17.50;99.90;;;;;;5059418;28;20044;-63
2022/06/17 07:20:19;;;;;;;11.13;4.22;;;17.60;99.90;;;;;;5059715;28;20172;-71
2022/06/17 07:22:44;;;;;;;6.20;4.30;;;17.70;99.90;;;;;;5053249;28;20052;-61
2022/06/17 07:25:10;;;;;;;12.38;4.25;;;17.90;99.90;;;;;;5069892;28;20205;-69
2022/06/17 07:27:35;;;;;;;5.10;4.13;;;17.90;99.90;;;;;;5068754;28;20039;-64
2022/06/17 07:30:01;;;;;;;18.77;4.65;;;18.00;99.90;;;;;;5071276;28;20055;-60
2022/06/17 07:32:27;;;;;;;10.60;4.20;;;18.20;99.90;;;;;;5068043;28;20081;-61
2022/06/17 07:34:53;;;;;;;6.93;4.05;;;18.30;99.90;;;;;;5070855;28;20453;-62
2022/06/17 07:40:04;;;;;;;7.10;4.25;;;18.40;99.90;;;;;;5070745;28;20051;-65
2022/06/17 07:42:39;;;;;;;10.82;4.10;;;18.40;99.90;;;;;;5065275;28;20036;-62
2022/06/17 07:45:15;;;;;;;5.78;4.15;;;18.40;99.90;;;;;;5067863;28;20044;-67
2022/06/17 07:47:42;;;;;;;5.60;4.30;;;18.50;99.90;;;;;;5069245;28;20044;-61
2022/06/17 07:50:12;;;;;;;7.63;4.68;;;18.50;99.90;;;;;;5067217;28;20075;-60
2022/06/17 07:52:38;;;;;;;8.00;4.22;;;18.60;99.90;;;;;;5070324;28;20452;-64
2022/06/17 07:55:05;;;;;;;9.18;4.57;;;18.60;99.90;;;;;;5065169;28;20043;-63
2022/06/17 07:57:31;;;;;;;10.77;4.30;;;18.70;99.90;;;;;;5086786;28;20131;-67
2022/06/17 07:59:57;;;;;;;5.88;4.30;;;18.80;99.90;;;;;;5051326;28;20119;-61
2022/06/17 08:02:23;;;;;;;4.82;4.07;;;18.80;99.90;;;;;;5049374;28;20107;-67
2022/06/17 08:04:48;;;;;;;8.02;3.97;;;19.00;99.90;;;;;;5049181;28;20040;-62
2022/06/17 08:07:15;;;;;;;6.22;3.92;;;19.20;99.90;;;;;;5047952;28;20493;-69
2022/06/17 08:09:41;;;;;;;5.80;4.30;;;19.30;99.90;;;;;;5067295;28;20040;-62
2022/06/17 08:12:11;;;;;;;5.60;4.10;;;19.40;99.70;;;;;;5065692;28;20044;-67
2022/06/17 08:14:43;;;;;;;;;;;19.70;99.90;;;;;;5042325;28;20052;-64
2022/06/17 08:17:13;;;;;;;8.00;3.90;;;19.90;98.40;;;;;;5037006;28;20375;-60
2022/06/17 08:19:40;;;;;;;8.63;4.25;;;20.00;97.50;;;;;;5017668;28;20045;-60
2022/06/17 08:22:06;;;;;;;11.23;4.57;;;20.30;96.30;;;;;;5045645;28;20134;-68
2022/06/17 08:24:32;;;;;;;7.93;4.00;;;20.50;95.20;;;;;;5020241;28;20040;-69
2022/06/17 08:26:58;;;;;;;7.80;4.38;;;20.90;95.30;;;;;;5037505;28;20060;-68
2022/06/17 08:29:26;;;;;;;7.72;3.65;;;21.40;93.70;;;;;;5043038;28;20047;-59
2022/06/17 08:31:52;;;;;;;4.15;3.72;;;21.70;91.40;;;;;;5044020;28;20041;-63
2022/06/17 08:34:18;;;;;;;11.80;3.63;;;21.90;83.20;;;;;;5036351;28;20059;-67
2022/06/17 08:36:45;;;;;;;5.68;3.95;;;22.10;87.40;;;;;;5046672;28;20033;-65
2022/06/17 08:39:14;;;;;;;6.85;4.15;;;22.40;76.00;;;;;;5045136;28;20476;-61
2022/06/17 08:42:04;;;;;;;9.60;4.05;;;22.70;72.60;;;;;;5044219;28;20433;-60
2022/06/17 08:45:03;;;;;;;7.97;3.75;;;23.00;57.60;;;;;;5045691;28;20144;-64
2022/06/17 08:48:02;;;;;;;6.80;4.15;;;23.00;43.00;;;;;;5044631;28;20095;-60
2022/06/17 08:50:52;;;;;;;11.50;3.78;;;23.30;54.30;;;;;;5042985;28;20120;-64
2022/06/17 08:53:37;;;;;;;5.78;3.60;;;23.70;40.80;;;;;;5045636;28;20499;-71
2022/06/17 08:56:25;;;;;;;11.95;3.92;;;23.90;41.20;;;;;;5041256;28;20060;-61
2022/06/17 08:58:59;;;;;;;9.63;3.60;;;24.00;41.90;;;;;;5040662;28;20045;-60
2022/06/17 09:01:43;;;;;;;6.78;3.90;;;24.20;29.60;;;;;;5043221;28;20076;-68
2022/06/17 09:04:18;;;;;;;9.45;3.72;;;24.20;39.90;;;;;;5042678;28;20053;-62
2022/06/17 09:07:25;;;;;;;5.43;4.32;;;24.30;24.30;;;;;;5037349;28;20193;-67
2022/06/17 09:09:53;;;;;;;9.10;3.60;;;24.30;31.80;;;;;;5003544;28;20041;-67
2022/06/17 09:12:25;;;;;;;9.63;3.83;;;24.30;34.30;;;;;;5015315;28;20063;-66
2022/06/17 09:15:15;;;;;;;8.05;3.63;;;24.10;24.40;;;;;;5066066;28;20060;-65
2022/06/17 09:17:50;;;;;;;7.68;3.83;;;23.90;24.60;;;;;;5066604;28;20506;-60
2022/06/17 09:20:19;;;;;;;3.78;3.28;;;23.70;21.70;;;;;;5051691;28;20429;-66
2022/06/17 09:22:56;;;;;;;6.22;3.25;;;23.40;28.10;;;;;;5068581;28;20495;-59
2022/06/17 09:25:36;;;;;;;7.80;3.50;;;23.30;41.00;;;;;;5067345;28;20105;-69
2022/06/17 09:28:02;;;;;;;6.32;3.22;;;23.10;45.00;;;;;;5064815;28;20039;-60
2022/06/17 09:30:33;;;;;;;4.10;3.00;;;23.10;51.20;;;;;;5047940;28;20048;-59
2022/06/17 09:33:08;;;;;;;5.90;3.28;;;23.00;34.60;;;;;;5063438;28;20069;-62
2022/06/17 09:35:42;;;;;;;6.43;3.30;;;22.90;46.00;;;;;;5064602;28;20056;-60
2022/06/17 09:38:13;;;;;;;5.57;2.90;;;22.80;47.90;;;;;;5063804;28;20892;-65
2022/06/17 09:41:06;;;;;;;4.85;2.97;;;22.80;56.90;;;;;;5067205;28;20048;-64
2022/06/17 09:43:52;;;;;;;8.32;3.15;;;22.80;60.40;;;;;;5067904;28;20093;-59
2022/06/17 09:46:30;;;;;;;4.72;3.25;;;22.80;51.90;;;;;;5065465;28;20044;-62
2022/06/17 09:49:32;;;;;;;4.35;2.50;;;22.80;53.30;;;;;;5067233;28;20391;-62
2022/06/17 09:52:26;;;;;;;8.70;3.10;;;22.80;56.00;;;;;;5065444;28;20044;-71
2022/06/17 09:55:06;;;;;;;6.18;3.30;;;22.90;56.80;;;;;;5040535;28;20189;-63
2022/06/17 09:58:02;;;;;;;8.07;3.47;;;23.00;62.80;;;;;;5069494;28;20083;-62
2022/06/17 10:00:36;;;;;;;10.15;4.40;;;23.30;55.40;;;;;;5063950;28;20487;-60
2022/06/17 10:03:28;;;;;;;7.72;3.35;;;23.60;53.70;;;;;;5070743;28;20579;-65
2022/06/17 10:06:28;;;;;;;7.40;3.40;;;24.00;41.10;;;;;;5060964;28;20048;-66
2022/06/17 10:09:03;;;;;;;7.40;3.05;;;24.30;49.30;;;;;;5063890;28;20052;-60
2022/06/17 10:11:28;;;;;;;5.07;3.20;;;24.40;32.20;;;;;;5071886;28;20059;-64
2022/06/17 10:14:23;;;;;;;4.47;2.72;;;24.50;40.50;;;;;;5067859;28;20060;-71
2022/06/17 10:19:49;;;;;;;4.05;2.38;;;24.10;35.50;;;;;;5068790;28;20044;-68
2022/06/17 10:22:30;;;;;;;6.57;2.83;;;23.80;37.10;;;;;;5051622;28;20121;-63
2022/06/17 10:25:05;;;;;;;13.23;2.65;;;23.70;50.80;;;;;;5066771;28;20052;-66
2022/06/17 10:27:49;;;;;;;10.60;2.25;;;23.50;46.10;;;;;;5069387;28;20131;-60
2022/06/17 10:30:58;;;;;;;5.28;2.67;;;23.50;42.50;;;;;;5069268;28;20071;-64
2022/06/17 10:33:24;;;;;;;4.05;2.47;;;23.40;35.40;;;;;;4970174;28;20210;-59
2022/06/17 10:35:50;;;;;;;4.10;2.15;;;23.40;40.10;;;;;;5053695;28;20060;-68
2022/06/17 10:38:24;;;;;;;4.22;2.25;;;23.30;29.40;;;;;;5053378;28;20050;-65
2022/06/17 10:40:50;;;;;;;5.07;2.25;;;23.30;25.60;;;;;;5067353;28;20055;-67
2022/06/17 10:43:20;;;;;;;4.88;2.20;;;23.20;31.10;;;;;;5059147;28;20044;-62
2022/06/17 10:45:48;;;;;;;9.02;2.65;;;23.10;35.10;;;;;;5071112;28;20211;-67
2022/06/17 10:48:19;;;;;;;4.63;2.40;;;23.10;40.50;;;;;;5066956;28;20052;-59
2022/06/17 10:50:45;;;;;;;5.35;2.50;;;23.10;60.20;;;;;;5070860;28;20054;-64
2022/06/17 10:53:34;;;;;;;5.30;2.22;;;23.10;62.90;;;;;;5089478;28;20068;-61
2022/06/17 10:56:03;;;;;;;;;;;23.00;50.80;;;;;;5066868;28;20502;-63
2022/06/17 10:58:33;;;;;;;6.13;2.38;;;22.90;43.80;;;;;;5069506;28;19920;-71
2022/06/17 11:01:15;;;;;;;5.45;2.10;;;22.80;50.60;;;;;;5087018;28;20059;-72
2022/06/17 11:03:48;;;;;;;8.65;2.15;;;22.70;60.40;;;;;;5065195;28;20130;-69
2022/06/17 11:06:20;;;;;;;12.27;2.38;;;22.70;65.10;;;;;;5068271;28;20040;-62
2022/06/17 11:08:59;;;;;;;8.20;2.30;;;22.70;76.50;;;;;;5060744;28;20091;-67
2022/06/17 11:14:29;;;;;;;;;;;23.00;76.00;;;;;;5062638;28;20041;-59
2022/06/17 11:17:10;;;;;;;5.80;2.42;;;23.20;61.90;;;;;;5044144;28;19973;-72
2022/06/17 11:19:43;;;;;;;4.95;2.15;;;23.50;64.60;;;;;;5064698;28;20032;-67
2022/06/17 11:22:25;;;;;;;5.63;2.70;;;23.80;46.70;;;;;;5062505;28;20123;-70
2022/06/17 11:24:56;;;;;;;6.30;3.33;;;24.00;38.40;;;;;;5058914;28;20055;-63
2022/06/17 11:27:22;;;;;;;6.93;2.70;;;24.10;30.60;;;;;;5066299;28;20053;-70
2022/06/17 11:29:51;;;;;;;10.38;2.88;;;24.30;47.50;;;;;;5053605;28;20194;-59
2022/06/17 11:32:20;;;;;;;;;;;24.30;49.40;;;;;;5068146;28;20056;-59
2022/06/17 11:35:01;;;;;;;6.13;2.60;;;24.40;42.80;;;;;;5053792;28;19928;-67
2022/06/17 11:37:32;;;;;;;5.40;2.70;;;24.50;34.30;;;;;;5067638;28;20091;-59
2022/06/17 11:40:15;;;;;;;6.95;2.58;;;24.50;35.30;;;;;;5064863;28;20063;-67
2022/06/17 11:42:57;;;;;;;7.82;2.38;;;24.70;36.00;;;;;;5066913;28;20445;-66
2022/06/17 11:45:32;;;;;;;11.85;2.75;;;24.80;20.20;;;;;;5056285;28;20063;-67
2022/06/17 11:48:08;;;;;;;4.50;2.30;;;24.80;23.70;;;;;;5065205;28;20052;-61
2022/06/17 11:50:40;;;;;;;15.38;2.15;;;24.80;18.80;;;;;;5063903;28;20526;-68
2022/06/17 11:53:16;;;;;;;4.57;2.65;;;24.80;25.60;;;;;;5047852;28;20051;-59
2022/06/17 11:55:45;;;;;;;5.40;2.53;;;24.90;23.10;;;;;;5058170;28;20062;-67
2022/06/17 11:58:13;;;;;;;6.90;2.17;;;24.90;20.90;;;;;;5065648;28;20549;-62
2022/06/17 12:01:13;;;;;;;4.00;2.28;;;24.90;18.30;;;;;;5065425;28;20375;-61
2022/06/17 12:03:45;;;;;;;14.88;2.92;;;24.70;11.60;;;;;;5066562;28;20865;-59
2022/06/17 12:06:27;;;;;;;7.28;2.50;;;24.60;13.80;;;;;;5047193;28;20125;-61
2022/06/17 12:09:10;;;;;;;5.40;2.20;;;24.70;15.60;;;;;;5046160;28;20052;-63
2022/06/17 12:11:54;;;;;;;6.47;2.15;;;24.80;12.10;;;;;;5066462;28;20047;-64
2022/06/17 12:14:49;;;;;;;4.28;2.20;;;24.70;13.80;;;;;;5080573;28;20127;-61
2022/06/17 12:17:17;;;;;;;5.55;2.13;;;24.70;14.80;;;;;;5066687;28;20111;-65
2022/06/17 12:19:43;;;;;;;3.63;2.45;;;24.70;19.90;;;;;;5069588;28;20457;-61
2022/06/17 12:22:11;;;;;;;3.00;2.05;;;24.70;15.00;;;;;;5068050;28;20040;-64
2022/06/17 12:24:49;;;;;;;5.77;2.30;;;24.80;20.70;;;;;;5069821;28;20036;-62
2022/06/17 12:27:28;;;;;;;10.35;2.75;;;24.90;18.80;;;;;;5057834;28;20044;-62
2022/06/17 12:30:05;;;;;;;3.75;2.38;;;25.00;6.20;;;;;;5052623;28;20468;-67
2022/06/17 12:32:42;;;;;;;4.22;2.53;;;25.30;17.90;;;;;;5069521;28;20083;-59
2022/06/17 12:35:45;;;;;;;3.58;2.10;;;25.50;10.40;;;;;;5055075;28;20055;-60
2022/06/17 12:38:17;;;;;;;5.15;2.97;;;25.60;10.50;;;;;;4989135;28;20050;-64
2022/06/17 12:41:13;;;;;;;4.72;2.70;;;25.80;8.70;;;;;;5049799;28;20059;-63
2022/06/17 12:43:39;;;;;;;6.90;2.47;;;25.80;7.00;;;;;;5068965;28;20338;-61
2022/06/17 12:46:16;;;;;;;8.05;3.22;;;25.70;6.60;;;;;;5068960;28;20131;-62
2022/06/17 12:55:44;;;;;;;9.43;3.28;;;25.60;10.30;;;;;;5065191;28;20048;-58
2022/06/17 12:58:28;;;;;;;4.68;2.78;;;25.50;10.30;;;;;;5022042;28;20127;-70
2022/06/17 13:01:05;;;;;;;6.97;2.75;;;25.60;8.90;;;;;;5068336;28;20525;-64
2022/06/17 13:03:36;;;;;;;6.43;2.63;;;25.60;8.10;;;;;;5052702;28;20048;-71
2022/06/17 13:06:41;;;;;;;3.38;2.05;;;25.70;6.80;;;;;;5067158;28;20117;-66
2022/06/17 13:09:12;;;;;;;5.85;2.80;;;25.70;7.70;;;;;;5066431;28;20580;-64
2022/06/17 13:11:55;;;;;;;8.52;2.55;;;25.70;9.80;;;;;;5068982;28;20043;-60
2022/06/17 13:14:55;;;;;;;5.93;2.50;;;25.70;13.00;;;;;;5067116;28;20044;-64
2022/06/17 13:17:32;;;;;;;3.28;2.38;;;25.70;14.90;;;;;;5067127;28;20518;-62
2022/06/17 13:20:13;;;;;;;7.47;2.92;;;25.60;11.80;;;;;;5064411;28;20074;-58
2022/06/17 13:22:59;;;;;;;5.38;2.50;;;25.50;7.20;;;;;;5051117;28;20809;-65
2022/06/17 13:25:41;;;;;;;10.80;2.75;;;25.40;13.90;;;;;;5068884;28;20086;-59
2022/06/17 13:28:18;;;;;;;7.90;2.70;;;25.20;16.50;;;;;;5063396;28;20402;-58
2022/06/17 13:30:56;;;;;;;6.75;2.53;;;25.20;18.20;;;;;;5064942;28;20062;-68
2022/06/17 13:33:38;;;;;;;7.70;2.30;;;25.10;17.00;;;;;;5064991;28;20063;-59